Aeroporto :
LOGIN :

Iscrizione | Disclaimer

   EN    FR    IT 

 










Sommario :    VFR   VFR Marginale   IFR   IFR Intensivo   IFR Molto Intensivo
Visibilità : 
Base nubi : 
>= 8 km
>= 3000ft
5 / 8 km
1000 / 3000 ft
1500m / 5 km
500 / 1000 ft
800 / 1500m
200 / 500 ft
< 800m
< 200 ft
Simboli :   Temporali  Nebbia  Neve Forte  Precipitazioni Forti  Vento > 20 kt
SIGMETs :   Varie  Temporali  Ghiacco  Turbolenza  Onda orograficha  Ceneri Vulcaniche







- Altitudine del aeroporto : 1411 ft
- Codice IATA : ZHI


LSZG - Grenchen

ULTIMO METAR :
  • 211620Z 07004KT CAVOK 19/04 Q1015 NOSIG

METARs OBSOLETI :
  • 211550Z 07005KT CAVOK 20/03 Q1015 NOSIG
  • 211520Z 08005KT CAVOK 20/05 Q1015 NOSIG
  • 211450Z 07004KT CAVOK 21/06 Q1015 NOSIG
  • 211420Z VRB02KT CAVOK 21/07 Q1016 NOSIG
  • 211350Z 26003KT CAVOK 21/06 Q1016 NOSIG

TAF TAF LSZG
Valido dal 21 a 15 ore il 22 a 00 ore UTC


211425Z 2115/2124 26003KT CAVOK
ATIS : +41 32 396 96 33
Nessun NOTAM noto per questo aeroporto.



MetMap, La meteo Aeronautica in un colpo d'occhio ! - Copyright ORBIFLY Dicembre 2007 - Disclaimer

ORBIFLY MET'MAP TEAM :

Programmazione e sviluppo : Alexandra Zaïnal
Concezione e sviluppo : Baudouin d'Aumeries
Co-Programmazione e sviluppo : Marc-Olivier Méhu
Supporto tecnico e logistico : Manuel Goepfert
Aiuto per la traduzione : Arnaldo La Scala

Contatto : metmap@orbifly.com




FONTI E CREDITI :

   NOAA